Time;durP1;ratioP1;P1;durP2;ratioP2;P2;SDS_P1;SDS_P2;PMS_P1;PMS_P2;Temp;Humidity;BMP_temperature;BMP_pressure;BME280_temperature;BME280_humidity;BME280_pressure;Samples;Min_cycle;Max_cycle;Signal;HPM_P1;HPM_P2
2022/08/27 00:02:05;;;;;;;25.30;11.63;;;;;;;;;;5038490;28;20282;-76
2022/08/27 00:04:33;;;;;;;19.57;11.07;;;;;;;;;;5038900;28;20208;-75
2022/08/27 00:07:00;;;;;;;20.83;11.70;;;;;;;;;;5037767;28;20641;-75
2022/08/27 00:09:28;;;;;;;21.43;10.80;;;;;;;;;;5047143;28;20294;-74
2022/08/27 00:11:56;;;;;;;21.47;11.23;;;;;;;;;;5042945;28;20716;-74
2022/08/27 00:14:25;;;;;;;22.87;11.10;;;;;;;;;;5044762;28;20198;-75
2022/08/27 00:16:52;;;;;;;26.00;11.23;;;;;;;;;;5044353;28;20310;-72
2022/08/27 00:19:20;;;;;;;22.33;10.30;;;;;;;;;;5047461;28;20657;-75
2022/08/27 00:21:47;;;;;;;25.37;10.37;;;;;;;;;;5045169;28;20215;-74
2022/08/27 00:24:14;;;;;;;23.80;10.17;;;;;;;;;;5042430;28;20207;-74
2022/08/27 00:26:42;;;;;;;22.40;10.73;;;;;;;;;;5041793;28;20233;-75
2022/08/27 00:29:09;;;;;;;22.77;10.30;;;;;;;;;;5044662;28;20199;-74
2022/08/27 00:31:38;;;;;;;19.57;10.07;;;;;;;;;;5041783;28;20229;-74
2022/08/27 00:34:05;;;;;;;18.33;9.97;;;;;;;;;;5046871;28;20203;-75
2022/08/27 00:36:32;;;;;;;18.77;9.37;;;;;;;;;;5047374;28;20309;-75
2022/08/27 00:38:59;;;;;;;21.80;9.80;;;;;;;;;;5043506;28;20199;-75
2022/08/27 00:41:26;;;;;;;23.03;10.40;;;;;;;;;;5045468;28;20677;-75
2022/08/27 00:43:56;;;;;;;23.03;9.90;;;;;;;;;;5048627;28;20290;-75
2022/08/27 00:46:25;;;;;;;19.57;10.30;;;;;;;;;;5043411;28;20222;-75
2022/08/27 00:48:56;;;;;;;28.07;9.57;;;;;;;;;;5048387;28;20207;-75
2022/08/27 00:51:24;;;;;;;20.70;9.67;;;;;;;;;;5043406;28;20220;-74
2022/08/27 00:53:52;;;;;;;21.27;9.50;;;;;;;;;;5039077;28;20673;-74
2022/08/27 00:56:22;;;;;;;20.40;8.77;;;;;;;;;;5042843;28;20233;-72
2022/08/27 00:58:50;;;;;;;24.77;9.43;;;;;;;;;;5041929;28;20208;-75
2022/08/27 01:01:18;;;;;;;16.83;8.87;;;;;;;;;;5040573;28;20206;-75
2022/08/27 01:03:47;;;;;;;20.00;9.00;;;;;;;;;;5039703;28;20211;-74
2022/08/27 01:06:17;;;;;;;21.07;9.23;;;;;;;;;;5045340;28;20861;-75
2022/08/27 01:08:46;;;;;;;16.97;8.93;;;;;;;;;;5044609;28;20204;-75
2022/08/27 01:11:13;;;;;;;19.67;9.80;;;;;;;;;;5042176;28;20836;-75
2022/08/27 01:13:41;;;;;;;21.87;9.57;;;;;;;;;;5047634;28;20815;-75
2022/08/27 01:16:09;;;;;;;21.03;9.40;;;;;;;;;;5044574;28;20739;-74
2022/08/27 01:18:37;;;;;;;20.90;9.20;;;;;;;;;;5044727;28;20203;-72
2022/08/27 01:21:06;;;;;;;22.70;9.00;;;;;;;;;;5041716;28;20221;-74
2022/08/27 01:23:39;;;;;;;23.37;9.90;;;;;;;;;;5035071;28;20342;-75
2022/08/27 01:26:10;;;;;;;20.37;9.43;;;;;;;;;;5043297;28;20316;-74
2022/08/27 01:28:37;;;;;;;17.03;8.33;;;;;;;;;;5041793;28;20207;-74
2022/08/27 01:43:20;;;;;;;18.20;9.17;;;;;;;;;;5041547;28;20721;-74
2022/08/27 01:45:49;;;;;;;14.33;8.63;;;;;;;;;;5043976;28;20205;-73
2022/08/27 01:48:16;;;;;;;17.27;9.40;;;;;;;;;;5042614;28;20251;-75
2022/08/27 01:50:44;;;;;;;14.70;8.60;;;;;;;;;;5047844;28;20203;-74
2022/08/27 01:53:11;;;;;;;19.47;8.90;;;;;;;;;;5046107;28;20231;-74
2022/08/27 01:55:39;;;;;;;15.43;8.60;;;;;;;;;;5045167;28;20207;-74
2022/08/27 01:58:06;;;;;;;21.87;7.80;;;;;;;;;;5046092;28;20237;-75
2022/08/27 02:00:36;;;;;;;17.10;8.73;;;;;;;;;;5041886;28;20659;-74
2022/08/27 02:03:04;;;;;;;17.60;9.27;;;;;;;;;;5043487;28;20287;-74
2022/08/27 02:05:32;;;;;;;16.33;8.63;;;;;;;;;;5044908;28;20563;-74
2022/08/27 02:07:59;;;;;;;15.07;8.50;;;;;;;;;;5044475;28;20227;-75
2022/08/27 02:10:28;;;;;;;15.30;8.17;;;;;;;;;;5046349;28;20646;-73
2022/08/27 02:12:55;;;;;;;14.00;8.47;;;;;;;;;;5043065;28;20652;-75
2022/08/27 02:15:23;;;;;;;16.83;8.73;;;;;;;;;;5042829;28;20266;-75
2022/08/27 02:17:52;;;;;;;16.60;8.63;;;;;;;;;;5043632;28;20224;-75
2022/08/27 02:20:20;;;;;;;18.83;9.00;;;;;;;;;;5043993;28;20203;-73
2022/08/27 02:22:48;;;;;;;17.70;9.37;;;;;;;;;;5039665;28;20318;-74
2022/08/27 02:25:18;;;;;;;18.60;9.87;;;;;;;;;;5044310;28;20645;-75
2022/08/27 02:27:46;;;;;;;15.30;8.97;;;;;;;;;;5045767;28;20226;-73
2022/08/27 02:30:16;;;;;;;16.00;8.77;;;;;;;;;;5042243;28;20200;-75
2022/08/27 02:32:46;;;;;;;15.17;8.70;;;;;;;;;;5042007;28;20229;-75
2022/08/27 02:35:14;;;;;;;15.63;9.57;;;;;;;;;;5044678;28;20641;-75
2022/08/27 02:37:42;;;;;;;19.50;9.73;;;;;;;;;;5042487;28;20722;-75
2022/08/27 02:40:10;;;;;;;15.67;9.23;;;;;;;;;;5047571;28;20241;-75
2022/08/27 02:42:37;;;;;;;21.00;9.03;;;;;;;;;;5044633;28;20199;-74
2022/08/27 02:45:06;;;;;;;19.47;9.67;;;;;;;;;;5040732;28;20230;-74
2022/08/27 02:47:34;;;;;;;17.20;9.23;;;;;;;;;;5044678;28;20701;-75
2022/08/27 02:50:01;;;;;;;16.27;9.07;;;;;;;;;;5042852;28;20204;-75
2022/08/27 02:52:30;;;;;;;16.63;9.47;;;;;;;;;;5041727;28;20704;-75
2022/08/27 02:54:57;;;;;;;21.47;9.40;;;;;;;;;;5039341;28;20203;-74
2022/08/27 02:57:24;;;;;;;27.63;9.67;;;;;;;;;;5046536;28;20233;-75
2022/08/27 02:59:52;;;;;;;19.03;9.70;;;;;;;;;;5043535;28;21201;-74
2022/08/27 03:02:20;;;;;;;18.73;9.73;;;;;;;;;;5044787;28;20238;-74
2022/08/27 03:04:48;;;;;;;16.67;9.43;;;;;;;;;;5039233;28;20202;-74
2022/08/27 03:07:15;;;;;;;21.23;9.47;;;;;;;;;;5043347;28;20223;-74
2022/08/27 03:09:44;;;;;;;20.63;9.47;;;;;;;;;;5041273;28;20530;-75
2022/08/27 03:12:11;;;;;;;18.60;8.53;;;;;;;;;;5038795;28;20676;-75
2022/08/27 03:14:39;;;;;;;21.07;9.30;;;;;;;;;;5039902;28;20264;-75
2022/08/27 03:19:49;;;;;;;16.30;8.27;;;;;;;;;;5040329;28;20198;-74
2022/08/27 03:22:16;;;;;;;18.60;8.83;;;;;;;;;;5042094;28;20748;-75
2022/08/27 03:24:45;;;;;;;18.67;9.30;;;;;;;;;;5041920;28;20199;-73
2022/08/27 03:27:14;;;;;;;18.20;8.00;;;;;;;;;;5041396;28;20226;-74
2022/08/27 03:29:41;;;;;;;14.73;7.50;;;;;;;;;;5044070;28;20203;-75
2022/08/27 03:32:08;;;;;;;11.23;7.10;;;;;;;;;;5037062;28;20219;-75
2022/08/27 03:34:35;;;;;;;12.73;7.00;;;;;;;;;;5041542;28;20207;-75
2022/08/27 03:37:02;;;;;;;14.03;6.97;;;;;;;;;;5041716;28;20242;-75
2022/08/27 03:39:29;;;;;;;13.37;6.73;;;;;;;;;;5040608;28;20588;-75
2022/08/27 03:41:58;;;;;;;20.23;7.97;;;;;;;;;;5042092;28;20205;-74
2022/08/27 03:44:25;;;;;;;14.30;6.90;;;;;;;;;;5038202;28;20207;-74
2022/08/27 03:46:53;;;;;;;12.63;6.47;;;;;;;;;;5045944;28;20229;-74
2022/08/27 03:55:27;;;;;;;14.47;7.17;;;;;;;;;;5042882;28;20559;-75
2022/08/27 03:57:56;;;;;;;13.77;6.93;;;;;;;;;;5042559;28;20926;-74
2022/08/27 04:00:25;;;;;;;17.87;7.33;;;;;;;;;;5042517;28;20207;-74
2022/08/27 04:02:53;;;;;;;12.00;6.10;;;;;;;;;;5044145;28;20223;-73
2022/08/27 04:05:21;;;;;;;12.77;7.03;;;;;;;;;;5043132;28;20741;-74
2022/08/27 04:07:48;;;;;;;11.20;6.10;;;;;;;;;;5042798;28;20229;-74
2022/08/27 04:10:16;;;;;;;12.63;6.07;;;;;;;;;;5042090;28;20211;-74
2022/08/27 04:12:45;;;;;;;15.17;6.30;;;;;;;;;;5045379;28;20223;-74
2022/08/27 04:15:14;;;;;;;11.77;6.27;;;;;;;;;;5042526;28;20217;-75
2022/08/27 04:17:41;;;;;;;10.33;5.47;;;;;;;;;;5039326;28;20710;-74
2022/08/27 04:20:09;;;;;;;9.90;5.37;;;;;;;;;;5042836;28;20203;-75
2022/08/27 04:22:37;;;;;;;15.00;5.70;;;;;;;;;;5042078;28;20199;-75
2022/08/27 04:25:04;;;;;;;11.23;5.40;;;;;;;;;;5040201;28;20207;-75
2022/08/27 04:27:31;;;;;;;9.83;5.07;;;;;;;;;;5040514;28;20622;-73
2022/08/27 04:30:00;;;;;;;10.70;4.70;;;;;;;;;;5037298;28;20653;-75
2022/08/27 04:32:29;;;;;;;9.77;4.80;;;;;;;;;;5042082;28;20630;-74
2022/08/27 04:34:56;;;;;;;10.53;4.63;;;;;;;;;;5039888;28;20229;-74
2022/08/27 04:37:24;;;;;;;6.67;4.27;;;;;;;;;;5043487;28;20759;-75
2022/08/27 04:39:51;;;;;;;7.63;4.43;;;;;;;;;;5038729;28;20199;-75
2022/08/27 04:42:19;;;;;;;8.00;4.40;;;;;;;;;;5040732;28;20206;-75
2022/08/27 04:44:47;;;;;;;8.37;4.57;;;;;;;;;;5038533;28;20208;-74
2022/08/27 04:47:15;;;;;;;7.53;4.00;;;;;;;;;;5041528;28;20222;-74
2022/08/27 04:49:44;;;;;;;7.90;4.37;;;;;;;;;;5044376;28;20218;-75
2022/08/27 04:52:11;;;;;;;7.10;4.00;;;;;;;;;;5045070;28;20205;-75
2022/08/27 04:54:38;;;;;;;6.47;3.77;;;;;;;;;;5043015;28;20206;-74
2022/08/27 04:57:06;;;;;;;9.00;4.30;;;;;;;;;;5043304;28;20318;-73
2022/08/27 04:59:34;;;;;;;7.20;4.37;;;;;;;;;;5041714;28;20249;-75
2022/08/27 05:02:02;;;;;;;9.23;3.77;;;;;;;;;;5041569;28;20653;-75
2022/08/27 05:04:29;;;;;;;8.07;4.07;;;;;;;;;;5046445;28;20199;-75
2022/08/27 05:06:59;;;;;;;8.57;4.20;;;;;;;;;;5040822;28;20226;-75
2022/08/27 05:09:26;;;;;;;7.83;4.23;;;;;;;;;;5045307;28;20727;-75
2022/08/27 05:11:54;;;;;;;6.00;3.53;;;;;;;;;;5045247;28;20280;-74
2022/08/27 05:14:22;;;;;;;7.70;3.40;;;;;;;;;;5044510;28;20700;-74
2022/08/27 05:16:51;;;;;;;6.03;3.23;;;;;;;;;;5048768;28;20257;-74
2022/08/27 05:19:18;;;;;;;8.80;3.50;;;;;;;;;;5045370;28;20268;-75
2022/08/27 05:21:47;;;;;;;4.23;3.00;;;;;;;;;;5042882;28;20238;-75
2022/08/27 05:24:16;;;;;;;7.83;3.40;;;;;;;;;;5044316;28;20207;-75
2022/08/27 05:26:44;;;;;;;4.37;3.10;;;;;;;;;;5043989;28;20581;-74
2022/08/27 05:29:13;;;;;;;5.03;2.90;;;;;;;;;;5042403;28;20294;-74
2022/08/27 05:31:40;;;;;;;4.87;2.73;;;;;;;;;;5042201;28;20203;-75
2022/08/27 05:52:30;;;;;;;2.97;1.83;;;;;;;;;;5038962;28;20195;-73
2022/08/27 05:54:58;;;;;;;5.13;1.90;;;;;;;;;;5034979;28;20211;-74
2022/08/27 05:57:25;;;;;;;5.17;1.90;;;;;;;;;;5041632;28;20231;-75
2022/08/27 06:02:38;;;;;;;2.43;1.60;;;;;;;;;;5047787;28;20253;-74
2022/08/27 06:05:05;;;;;;;1.90;1.30;;;;;;;;;;5041279;28;20389;-76
2022/08/27 07:04:56;;;;;;;2.70;1.43;;;;;;;;;;4967319;28;20239;-79
2022/08/27 07:07:24;;;;;;;3.23;1.50;;;;;;;;;;4973352;28;20209;-79
2022/08/27 07:09:54;;;;;;;3.77;1.43;;;;;;;;;;4978205;28;20221;-79
2022/08/27 07:12:21;;;;;;;2.50;1.60;;;;;;;;;;4973391;28;20775;-79
2022/08/27 07:14:48;;;;;;;2.00;1.50;;;;;;;;;;4972769;28;20232;-78
2022/08/27 07:17:16;;;;;;;2.73;1.53;;;;;;;;;;4977344;28;20204;-79
2022/08/27 07:19:44;;;;;;;2.30;1.27;;;;;;;;;;4971197;28;20213;-78
2022/08/27 07:22:19;;;;;;;2.93;1.43;;;;;;;;;;4972367;28;20221;-80
2022/08/27 07:24:46;;;;;;;2.70;1.27;;;;;;;;;;4978474;28;20678;-80
2022/08/27 07:27:13;;;;;;;2.23;1.50;;;;;;;;;;4972831;28;20328;-79
2022/08/27 07:29:41;;;;;;;3.20;1.20;;;;;;;;;;4980705;28;20297;-79
2022/08/27 07:32:09;;;;;;;1.90;1.23;;;;;;;;;;4967638;28;20226;-79
2022/08/27 07:34:36;;;;;;;2.67;1.60;;;;;;;;;;4973019;28;20272;-80
2022/08/27 07:37:06;;;;;;;3.93;1.43;;;;;;;;;;4985204;28;20232;-79
2022/08/27 07:39:35;;;;;;;2.07;1.30;;;;;;;;;;4977936;28;20857;-78
2022/08/27 07:44:51;;;;;;;3.23;1.70;;;;;;;;;;4965584;28;20209;-78
2022/08/27 07:47:18;;;;;;;5.40;1.60;;;;;;;;;;4970619;28;20671;-78
2022/08/27 07:49:45;;;;;;;3.63;1.23;;;;;;;;;;4971295;28;20212;-78
2022/08/27 07:52:14;;;;;;;3.50;1.50;;;;;;;;;;4970152;28;20221;-80
2022/08/27 07:54:43;;;;;;;5.13;1.40;;;;;;;;;;4969243;28;20225;-78
2022/08/27 07:57:10;;;;;;;1.77;1.20;;;;;;;;;;4971538;28;20664;-79
2022/08/27 07:59:38;;;;;;;2.80;1.60;;;;;;;;;;4974857;28;20210;-76
2022/08/27 08:02:05;;;;;;;2.30;1.20;;;;;;;;;;4975586;28;20225;-80
2022/08/27 08:04:32;;;;;;;2.20;1.20;;;;;;;;;;4972053;28;20205;-80
2022/08/27 08:06:59;;;;;;;5.67;1.40;;;;;;;;;;4977154;28;20231;-80
2022/08/27 08:09:29;;;;;;;3.40;1.67;;;;;;;;;;4981130;28;20210;-79
2022/08/27 08:11:57;;;;;;;4.27;1.50;;;;;;;;;;4984914;28;20297;-78
2022/08/27 08:14:25;;;;;;;3.10;1.50;;;;;;;;;;4974636;28;20225;-78
2022/08/27 08:16:52;;;;;;;3.90;1.93;;;;;;;;;;4978797;28;20210;-80
2022/08/27 08:19:19;;;;;;;2.80;1.83;;;;;;;;;;4968592;28;20215;-78
2022/08/27 08:21:46;;;;;;;2.90;1.50;;;;;;;;;;4969796;28;20320;-80
2022/08/27 08:24:13;;;;;;;3.60;1.70;;;;;;;;;;4978516;28;20221;-81
2022/08/27 08:26:40;;;;;;;2.07;1.20;;;;;;;;;;4977571;28;20205;-79
2022/08/27 08:29:09;;;;;;;2.93;1.80;;;;;;;;;;4975052;28;20327;-81
2022/08/27 08:31:36;;;;;;;3.27;1.40;;;;;;;;;;4979260;28;20312;-80
2022/08/27 08:34:03;;;;;;;3.40;1.63;;;;;;;;;;4977151;28;20245;-80
2022/08/27 08:36:30;;;;;;;4.57;1.50;;;;;;;;;;4982711;28;20542;-80
2022/08/27 08:38:58;;;;;;;3.03;1.43;;;;;;;;;;4986029;28;20240;-79
2022/08/27 08:41:31;;;;;;;3.70;1.57;;;;;;;;;;4979437;28;20248;-78
2022/08/27 08:43:59;;;;;;;2.27;1.50;;;;;;;;;;4983342;28;20198;-79
2022/08/27 08:46:31;;;;;;;2.77;1.40;;;;;;;;;;4977450;28;20264;-80
2022/08/27 08:49:02;;;;;;;3.07;1.43;;;;;;;;;;4984555;28;20221;-81
2022/08/27 08:51:31;;;;;;;2.40;1.40;;;;;;;;;;4981488;28;20229;-77
2022/08/27 08:54:00;;;;;;;2.03;1.30;;;;;;;;;;4982516;28;20308;-80
2022/08/27 08:56:29;;;;;;;2.97;1.67;;;;;;;;;;4980624;28;20717;-77
2022/08/27 08:59:00;;;;;;;2.53;1.40;;;;;;;;;;4982396;28;20689;-78
2022/08/27 09:01:28;;;;;;;2.03;1.40;;;;;;;;;;4978781;28;20206;-79
2022/08/27 09:03:57;;;;;;;2.33;1.27;;;;;;;;;;4981223;28;20281;-79
2022/08/27 09:06:39;;;;;;;2.23;1.40;;;;;;;;;;4987704;28;20197;-78
2022/08/27 09:09:11;;;;;;;4.33;1.80;;;;;;;;;;4981870;28;20621;-79
2022/08/27 09:11:41;;;;;;;2.60;1.60;;;;;;;;;;4975615;28;20624;-79
2022/08/27 09:14:20;;;;;;;1.93;1.50;;;;;;;;;;4973385;28;20217;-79
2022/08/27 09:16:48;;;;;;;2.93;1.53;;;;;;;;;;4983211;28;20218;-80
2022/08/27 09:19:16;;;;;;;3.00;1.27;;;;;;;;;;4976105;28;20729;-79
2022/08/27 09:21:49;;;;;;;1.80;1.30;;;;;;;;;;4970024;28;20587;-79
2022/08/27 09:24:20;;;;;;;2.60;1.50;;;;;;;;;;4963828;28;21777;-78
2022/08/27 09:26:47;;;;;;;2.33;1.33;;;;;;;;;;4975499;28;20204;-79
2022/08/27 09:29:18;;;;;;;1.97;1.20;;;;;;;;;;4976203;28;20293;-79
2022/08/27 09:31:47;;;;;;;1.93;1.20;;;;;;;;;;4973600;28;20274;-79
2022/08/27 09:34:16;;;;;;;2.20;1.07;;;;;;;;;;4972468;28;20663;-79
2022/08/27 09:36:51;;;;;;;1.97;1.20;;;;;;;;;;4969117;28;20644;-79
2022/08/27 09:54:47;;;;;;;3.37;1.10;;;;;;;;;;4985208;23;20262;-83
2022/08/27 09:57:27;;;;;;;3.43;1.50;;;;;;;;;;4989936;28;20215;-82
2022/08/27 09:59:55;;;;;;;4.83;1.60;;;;;;;;;;4987823;28;20244;-83
2022/08/27 10:02:24;;;;;;;2.23;1.30;;;;;;;;;;4986561;28;20219;-83
2022/08/27 10:04:53;;;;;;;2.13;1.20;;;;;;;;;;4987232;28;20225;-83
2022/08/27 10:07:30;;;;;;;2.27;1.40;;;;;;;;;;4983791;28;20300;-82
2022/08/27 10:10:03;;;;;;;1.63;1.17;;;;;;;;;;4991920;28;20209;-82
2022/08/27 10:12:34;;;;;;;1.77;1.30;;;;;;;;;;4988039;28;20245;-81
2022/08/27 10:15:04;;;;;;;1.77;1.27;;;;;;;;;;4986601;28;20226;-82
2022/08/27 10:17:36;;;;;;;2.13;1.30;;;;;;;;;;4986613;28;20208;-83
2022/08/27 10:20:05;;;;;;;2.77;1.50;;;;;;;;;;4989019;28;20304;-82
2022/08/27 10:22:36;;;;;;;1.30;1.20;;;;;;;;;;4987769;28;20232;-82
2022/08/27 10:25:09;;;;;;;2.43;1.20;;;;;;;;;;4989565;28;20235;-82
2022/08/27 10:27:40;;;;;;;1.93;1.17;;;;;;;;;;4987670;28;20261;-81
2022/08/27 10:30:09;;;;;;;2.10;1.37;;;;;;;;;;4989698;28;20216;-81
2022/08/27 10:35:29;;;;;;;1.77;1.30;;;;;;;;;;4989179;28;20229;-83
2022/08/27 10:38:04;;;;;;;1.37;1.20;;;;;;;;;;4982888;28;20209;-82
2022/08/27 10:40:36;;;;;;;1.83;1.27;;;;;;;;;;4986293;28;20243;-82
2022/08/27 10:43:10;;;;;;;4.00;1.63;;;;;;;;;;4991751;28;20825;-84
2022/08/27 10:45:43;;;;;;;2.13;1.53;;;;;;;;;;4986041;28;20243;-84
2022/08/27 10:48:16;;;;;;;2.03;1.40;;;;;;;;;;4988776;28;20215;-81
2022/08/27 10:50:46;;;;;;;2.57;1.30;;;;;;;;;;4981361;28;20685;-84
2022/08/27 10:53:20;;;;;;;1.63;1.30;;;;;;;;;;4981268;28;20201;-84
2022/08/27 10:55:51;;;;;;;1.67;1.27;;;;;;;;;;4984159;28;20256;-83
2022/08/27 10:58:23;;;;;;;1.70;1.30;;;;;;;;;;4986356;28;20566;-84
2022/08/27 11:00:54;;;;;;;2.23;1.50;;;;;;;;;;4981524;28;20213;-85
2022/08/27 11:03:25;;;;;;;1.53;1.27;;;;;;;;;;4980572;28;20861;-83
2022/08/27 11:05:53;;;;;;;2.27;1.40;;;;;;;;;;4982276;28;20736;-84
2022/08/27 11:08:23;;;;;;;1.30;1.20;;;;;;;;;;4982626;28;20645;-84
2022/08/27 11:10:54;;;;;;;1.80;1.33;;;;;;;;;;4984995;28;20626;-83
2022/08/27 11:13:26;;;;;;;2.90;1.50;;;;;;;;;;4981641;28;20268;-82
2022/08/27 11:15:59;;;;;;;6.50;1.63;;;;;;;;;;4984742;28;20646;-83
2022/08/27 11:18:37;;;;;;;4.03;1.43;;;;;;;;;;4984744;28;20216;-82
2022/08/27 11:29:50;;;;;;;7.90;1.70;;;;;;;;;;4981567;28;20228;-82
2022/08/27 11:32:22;;;;;;;5.80;1.20;;;;;;;;;;4983041;28;20209;-83
2022/08/27 11:34:52;;;;;;;4.67;1.80;;;;;;;;;;4989525;28;20232;-82
2022/08/27 11:37:34;;;;;;;2.50;1.50;;;;;;;;;;4983974;28;20197;-83
2022/08/27 11:40:17;;;;;;;7.87;1.90;;;;;;;;;;4987428;28;20233;-84
2022/08/27 11:45:57;;;;;;;1.90;1.33;;;;;;;;;;4968195;23;20240;-79
2022/08/27 11:48:24;;;;;;;1.87;1.40;;;;;;;;;;4982207;28;20217;-79
2022/08/27 11:50:56;;;;;;;2.30;1.40;;;;;;;;;;4986704;28;20209;-79
2022/08/27 11:53:28;;;;;;;2.27;1.37;;;;;;;;;;4980565;28;20312;-79
2022/08/27 11:56:11;;;;;;;3.23;1.50;;;;;;;;;;4983300;28;20221;-77
2022/08/27 11:58:39;;;;;;;2.63;1.43;;;;;;;;;;4980448;28;20212;-77
2022/08/27 12:01:16;;;;;;;1.60;1.30;;;;;;;;;;4982068;28;20296;-79
2022/08/27 12:03:47;;;;;;;3.67;1.40;;;;;;;;;;4983873;28;20243;-79
2022/08/27 12:06:25;;;;;;;3.10;1.67;;;;;;;;;;4981378;28;20200;-80
2022/08/27 12:08:53;;;;;;;1.17;1.07;;;;;;;;;;4978319;28;20205;-79
2022/08/27 12:11:32;;;;;;;2.23;1.27;;;;;;;;;;4978836;28;20245;-78
2022/08/27 12:14:04;;;;;;;2.77;1.97;;;;;;;;;;4985991;28;20232;-78
2022/08/27 12:16:37;;;;;;;9.33;1.50;;;;;;;;;;4986322;28;20202;-77
2022/08/27 12:19:10;;;;;;;8.40;1.30;;;;;;;;;;4981351;28;20204;-79
2022/08/27 12:21:44;;;;;;;7.20;1.23;;;;;;;;;;4978604;28;20640;-78
2022/08/27 12:24:19;;;;;;;1.80;1.57;;;;;;;;;;4978831;28;20209;-79
2022/08/27 12:26:55;;;;;;;1.67;1.40;;;;;;;;;;4978550;28;20307;-77
2022/08/27 12:29:28;;;;;;;3.20;1.40;;;;;;;;;;4980290;28;20206;-79
2022/08/27 12:32:01;;;;;;;5.00;1.50;;;;;;;;;;4980114;28;20221;-79
2022/08/27 12:34:29;;;;;;;1.80;1.30;;;;;;;;;;4980558;28;20214;-79
2022/08/27 12:36:59;;;;;;;1.20;1.10;;;;;;;;;;4975693;28;20337;-78
2022/08/27 12:39:29;;;;;;;4.83;1.40;;;;;;;;;;4973863;28;20207;-77
2022/08/27 12:41:56;;;;;;;1.80;1.17;;;;;;;;;;4978362;28;20308;-78
2022/08/27 12:44:25;;;;;;;3.13;1.23;;;;;;;;;;4981795;28;20260;-80
2022/08/27 12:46:55;;;;;;;2.30;1.40;;;;;;;;;;4984372;28;20206;-77
2022/08/27 12:49:26;;;;;;;1.43;1.27;;;;;;;;;;4983799;28;20213;-79
2022/08/27 12:51:53;;;;;;;2.70;1.67;;;;;;;;;;4989522;28;20232;-77
2022/08/27 12:54:27;;;;;;;2.87;1.37;;;;;;;;;;4981170;28;20202;-77
2022/08/27 12:56:58;;;;;;;1.20;1.10;;;;;;;;;;4984117;28;20639;-77
2022/08/27 12:59:33;;;;;;;1.30;1.20;;;;;;;;;;4976126;28;20204;-79
2022/08/27 13:02:04;;;;;;;3.00;1.30;;;;;;;;;;4980271;28;20221;-80
2022/08/27 13:04:33;;;;;;;5.13;1.83;;;;;;;;;;4979338;28;20332;-79
2022/08/27 13:07:00;;;;;;;13.37;1.57;;;;;;;;;;4976268;28;20610;-80
2022/08/27 13:09:29;;;;;;;12.50;1.67;;;;;;;;;;4979152;28;20217;-78
2022/08/27 13:11:56;;;;;;;22.23;1.83;;;;;;;;;;4973668;28;20256;-80
2022/08/27 13:14:24;;;;;;;7.50;1.50;;;;;;;;;;4978838;28;20209;-80
2022/08/27 13:16:53;;;;;;;4.57;1.47;;;;;;;;;;4984888;28;20264;-76
2022/08/27 13:19:22;;;;;;;30.43;2.70;;;;;;;;;;4984778;28;20242;-78
2022/08/27 13:21:50;;;;;;;6.37;1.57;;;;;;;;;;4983098;28;20240;-79
2022/08/27 13:24:20;;;;;;;18.50;2.20;;;;;;;;;;4978933;28;20725;-78
2022/08/27 13:26:52;;;;;;;10.33;1.70;;;;;;;;;;4979489;28;20205;-78
2022/08/27 13:29:19;;;;;;;10.17;1.73;;;;;;;;;;4977084;28;20343;-79
2022/08/27 13:31:48;;;;;;;11.97;1.90;;;;;;;;;;4981574;28;20316;-80
2022/08/27 13:34:18;;;;;;;22.57;2.20;;;;;;;;;;4978891;28;20208;-79
2022/08/27 13:36:52;;;;;;;18.83;2.77;;;;;;;;;;4989557;28;20292;-78
2022/08/27 13:39:20;;;;;;;10.93;1.90;;;;;;;;;;4984942;28;20200;-78
2022/08/27 13:41:48;;;;;;;2.60;1.80;;;;;;;;;;4987289;28;20232;-80
2022/08/27 13:44:18;;;;;;;3.33;1.67;;;;;;;;;;4984815;28;20242;-77
2022/08/27 13:46:47;;;;;;;1.93;1.53;;;;;;;;;;4984262;28;20193;-79
2022/08/27 13:49:16;;;;;;;2.23;1.70;;;;;;;;;;4982599;28;20684;-77
2022/08/27 13:51:44;;;;;;;3.13;1.43;;;;;;;;;;4983068;28;20260;-78
2022/08/27 13:54:20;;;;;;;4.47;1.70;;;;;;;;;;4982477;28;20217;-79
2022/08/27 13:57:08;;;;;;;2.90;1.70;;;;;;;;;;4979700;28;20242;-79
2022/08/27 13:59:36;;;;;;;6.17;1.93;;;;;;;;;;4976915;28;21815;-80
2022/08/27 14:02:05;;;;;;;6.80;2.03;;;;;;;;;;4982340;28;20225;-78
2022/08/27 14:04:38;;;;;;;20.57;2.73;;;;;;;;;;4985298;28;20217;-78
2022/08/27 14:07:12;;;;;;;30.60;3.07;;;;;;;;;;4985218;28;20201;-78
2022/08/27 14:09:46;;;;;;;5.13;2.37;;;;;;;;;;4979019;28;20224;-77
2022/08/27 14:12:20;;;;;;;22.60;2.70;;;;;;;;;;4975268;28;20220;-75
2022/08/27 14:14:53;;;;;;;15.27;1.97;;;;;;;;;;4972687;28;20234;-76
2022/08/27 14:17:21;;;;;;;17.93;2.40;;;;;;;;;;4970683;28;20201;-76
2022/08/27 14:19:49;;;;;;;18.97;2.20;;;;;;;;;;4972377;28;20237;-75
2022/08/27 14:22:16;;;;;;;8.10;1.87;;;;;;;;;;4971906;28;20256;-76
2022/08/27 14:24:45;;;;;;;19.73;2.00;;;;;;;;;;4973345;28;20740;-75
2022/08/27 14:27:15;;;;;;;3.93;1.73;;;;;;;;;;4971465;28;20317;-75
2022/08/27 14:29:43;;;;;;;7.57;1.90;;;;;;;;;;4973238;28;20704;-76
2022/08/27 14:32:10;;;;;;;10.63;2.20;;;;;;;;;;4974585;28;20312;-75
2022/08/27 14:34:37;;;;;;;13.37;3.10;;;;;;;;;;4969087;28;20209;-77
2022/08/27 14:37:05;;;;;;;6.63;2.50;;;;;;;;;;4975285;28;20225;-75
2022/08/27 14:39:34;;;;;;;19.07;3.23;;;;;;;;;;4965519;28;20304;-73
2022/08/27 14:42:03;;;;;;;15.10;3.43;;;;;;;;;;4968673;28;20220;-73
2022/08/27 14:44:30;;;;;;;17.57;3.10;;;;;;;;;;4968238;28;20220;-75
2022/08/27 14:46:58;;;;;;;25.80;3.47;;;;;;;;;;4973069;28;20204;-74
2022/08/27 14:49:28;;;;;;;6.27;2.53;;;;;;;;;;4977508;28;20549;-74
2022/08/27 14:51:55;;;;;;;25.23;3.00;;;;;;;;;;4974251;28;20714;-75
2022/08/27 14:54:22;;;;;;;4.40;2.53;;;;;;;;;;4966741;28;20209;-77
2022/08/27 14:56:50;;;;;;;20.13;3.80;;;;;;;;;;4968667;28;20244;-77
2022/08/27 14:59:18;;;;;;;35.70;4.00;;;;;;;;;;4971973;28;20206;-77
2022/08/27 15:01:46;;;;;;;25.40;3.97;;;;;;;;;;4974511;28;20230;-78
2022/08/27 15:04:13;;;;;;;11.73;2.97;;;;;;;;;;4973345;28;20206;-75
2022/08/27 15:06:40;;;;;;;6.07;2.70;;;;;;;;;;4975260;28;20300;-76
2022/08/27 15:09:07;;;;;;;8.27;2.80;;;;;;;;;;4974880;28;20205;-76
2022/08/27 15:11:35;;;;;;;4.13;2.50;;;;;;;;;;4972462;28;20229;-76
2022/08/27 15:14:04;;;;;;;4.47;2.40;;;;;;;;;;4965463;28;20244;-76
2022/08/27 15:16:33;;;;;;;5.97;2.33;;;;;;;;;;4975863;28;20261;-77
2022/08/27 15:19:01;;;;;;;3.50;1.80;;;;;;;;;;4973918;28;20539;-77
2022/08/27 15:21:29;;;;;;;5.20;2.20;;;;;;;;;;4972992;28;20206;-77
2022/08/27 15:23:58;;;;;;;3.83;2.00;;;;;;;;;;4976840;28;20209;-77
2022/08/27 15:26:26;;;;;;;7.73;1.90;;;;;;;;;;4974311;28;20204;-77
2022/08/27 15:28:53;;;;;;;3.93;2.00;;;;;;;;;;4980629;28;20283;-78
2022/08/27 15:31:23;;;;;;;7.43;2.33;;;;;;;;;;4987680;28;20202;-76
2022/08/27 15:33:54;;;;;;;6.43;2.53;;;;;;;;;;4982416;28;20244;-78
2022/08/27 15:36:21;;;;;;;19.73;2.90;;;;;;;;;;4973986;28;20225;-77
2022/08/27 15:38:48;;;;;;;3.60;2.10;;;;;;;;;;4973435;28;20292;-78
2022/08/27 15:41:15;;;;;;;4.83;2.13;;;;;;;;;;4973910;28;20445;-78
2022/08/27 15:43:42;;;;;;;9.13;1.73;;;;;;;;;;4973716;28;20209;-79
2022/08/27 15:46:09;;;;;;;3.43;2.10;;;;;;;;;;4974588;28;20662;-78
2022/08/27 15:48:37;;;;;;;5.17;2.00;;;;;;;;;;4976785;28;20209;-78
2022/08/27 15:51:07;;;;;;;4.37;1.90;;;;;;;;;;4976116;28;20241;-77
2022/08/27 15:53:36;;;;;;;5.67;2.33;;;;;;;;;;4975517;28;20236;-78
2022/08/27 15:56:04;;;;;;;2.80;1.80;;;;;;;;;;4979282;28;20221;-78
2022/08/27 15:58:32;;;;;;;3.67;1.90;;;;;;;;;;4980506;28;20559;-78
2022/08/27 16:01:06;;;;;;;4.13;1.93;;;;;;;;;;4980719;28;20243;-77
2022/08/27 16:03:33;;;;;;;4.47;1.80;;;;;;;;;;4972836;28;20228;-77
2022/08/27 16:06:01;;;;;;;4.63;2.27;;;;;;;;;;4974658;28;20208;-77
2022/08/27 16:08:30;;;;;;;5.23;2.10;;;;;;;;;;4972760;28;20198;-78
2022/08/27 16:10:57;;;;;;;5.77;2.10;;;;;;;;;;4977869;28;20201;-78
2022/08/27 16:13:25;;;;;;;4.33;2.07;;;;;;;;;;4975373;28;20229;-77
2022/08/27 16:15:53;;;;;;;5.13;2.10;;;;;;;;;;4972145;28;20434;-77
2022/08/27 16:18:22;;;;;;;4.30;2.10;;;;;;;;;;4972864;28;20201;-77
2022/08/27 16:20:57;;;;;;;3.93;2.03;;;;;;;;;;4973280;28;20301;-77
2022/08/27 16:23:25;;;;;;;5.43;2.27;;;;;;;;;;4972071;28;20279;-75
2022/08/27 16:25:53;;;;;;;9.27;2.37;;;;;;;;;;4976035;28;20896;-79
2022/08/27 16:28:23;;;;;;;4.33;2.07;;;;;;;;;;4977643;28;20201;-77
2022/08/27 16:30:56;;;;;;;6.80;2.30;;;;;;;;;;4980779;28;20582;-78
2022/08/27 16:33:24;;;;;;;4.27;2.00;;;;;;;;;;4973914;28;20645;-78
2022/08/27 16:35:51;;;;;;;6.47;2.10;;;;;;;;;;4977541;28;20281;-77
2022/08/27 16:38:19;;;;;;;6.27;2.20;;;;;;;;;;4972852;28;20576;-76
2022/08/27 16:40:50;;;;;;;4.10;2.00;;;;;;;;;;4974480;28;20229;-77
2022/08/27 16:43:20;;;;;;;8.60;2.23;;;;;;;;;;4972757;28;20252;-77
2022/08/27 16:45:48;;;;;;;5.13;2.40;;;;;;;;;;4972801;28;20220;-76
2022/08/27 16:51:00;;;;;;;6.83;2.30;;;;;;;;;;4966539;28;20590;-77
2022/08/27 16:53:31;;;;;;;5.43;2.40;;;;;;;;;;4970498;28;20224;-78
2022/08/27 16:55:59;;;;;;;6.37;2.40;;;;;;;;;;4972202;28;20707;-77
2022/08/27 16:58:28;;;;;;;4.63;2.37;;;;;;;;;;4978964;28;20220;-76
2022/08/27 17:00:58;;;;;;;4.57;2.43;;;;;;;;;;4986120;28;20202;-77
2022/08/27 17:03:29;;;;;;;4.00;2.10;;;;;;;;;;4988258;28;20217;-77
2022/08/27 17:05:57;;;;;;;6.60;2.40;;;;;;;;;;4980927;28;20220;-77